| time (UTC) | temp F | wind direction | speed MPH | gust MPH | rain 1hr in | rain 24hr in | rain mn in | humidity % | barometer mb |
| 20260503221255 | 77 | 91 | 0.0 | 1.0 | 0.00 | 0.00 | 0.00 | 33 | 1014.2 |
| 20260503220751 | 77 | 99 | 2.0 | 2.0 | 0.00 | 0.00 | 0.00 | 31 | 1014.3 |
| 20260503220248 | 77 | 100 | 1.0 | 1.0 | 0.00 | 0.00 | 0.00 | 31 | 1014.3 |
| 20260503215745 | 78 | 121 | 1.0 | 3.0 | 0.00 | 0.00 | 0.00 | 33 | 1014.6 |
| 20260503215242 | 78 | 170 | 0.0 | 1.0 | 0.00 | 0.00 | 0.00 | 34 | 1014.6 |
| 20260503214740 | 77 | 196 | 1.0 | 3.0 | 0.00 | 0.00 | 0.00 | 35 | 1014.5 |
| 20260503214236 | 77 | 101 | 0.0 | 1.0 | 0.00 | 0.00 | 0.00 | 34 | 1014.6 |
| 20260503213735 | 78 | 357 | 1.0 | 2.0 | 0.00 | 0.00 | 0.00 | 31 | 1014.7 |
| 20260503213232 | 78 | 162 | 0.0 | 1.0 | 0.00 | 0.00 | 0.00 | 33 | 1014.5 |
| 20260503212728 | 78 | 91 | 1.0 | 1.0 | 0.00 | 0.00 | 0.00 | 31 | 1014.7 |
| 20260503212226 | 78 | 230 | 0.0 | 2.0 | 0.00 | 0.00 | 0.00 | 32 | 1014.7 |
| 20260503211724 | 79 | 31 | 0.0 | 1.0 | 0.00 | 0.00 | 0.00 | 35 | 1014.7 |
| 20260503211219 | 80 | 266 | 1.0 | 2.0 | 0.00 | 0.00 | 0.00 | 31 | 1014.7 |
| 20260503210715 | 80 | 182 | 1.0 | 2.0 | 0.00 | 0.00 | 0.00 | 33 | 1014.7 |
| 20260503210213 | 80 | 176 | 1.0 | 2.0 | 0.00 | 0.00 | 0.00 | 34 | 1014.6 |
| 20260503205708 | 80 | 184 | 1.0 | 1.0 | 0.00 | 0.00 | 0.00 | 34 | 1014.8 |
| 20260503205204 | 80 | 176 | 0.0 | 2.0 | 0.00 | 0.00 | 0.00 | 33 | 1014.8 |
| 20260503204701 | 80 | 259 | 1.0 | 2.0 | 0.00 | 0.00 | 0.00 | 31 | 1014.7 |
| 20260503204159 | 80 | 238 | 0.0 | 1.0 | 0.00 | 0.00 | 0.00 | 33 | 1014.7 |
| 20260503203655 | 81 | 68 | 0.0 | 1.0 | 0.00 | 0.00 | 0.00 | 33 | 1014.8 |
| 20260503203153 | 80 | 22 | 1.0 | 1.0 | 0.00 | 0.00 | 0.00 | 32 | 1014.8 |
| 20260503202650 | 80 | 90 | 0.0 | 2.0 | 0.00 | 0.00 | 0.00 | 35 | 1014.7 |
| 20260503202148 | 79 | 37 | 1.0 | 3.0 | 0.00 | 0.00 | 0.00 | 33 | 1014.8 |
| 20260503201646 | 78 | 56 | 1.0 | 2.0 | 0.00 | 0.00 | 0.00 | 32 | 1014.7 |
| 20260503201143 | 78 | 37 | 1.0 | 2.0 | 0.00 | 0.00 | 0.00 | 33 | 1014.8 |
| 20260503200639 | 79 | 103 | 1.0 | 1.0 | 0.00 | 0.00 | 0.00 | 33 | 1014.7 |
| 20260503200135 | 77 | 215 | 1.0 | 2.0 | 0.00 | 0.00 | 0.00 | 34 | 1015.0 |
| 20260503195633 | 77 | 194 | 1.0 | 2.0 | 0.00 | 0.00 | 0.00 | 35 | 1015.0 |
| 20260503195129 | 77 | 101 | 1.0 | 2.0 | 0.00 | 0.00 | 0.00 | 34 | 1015.3 |
| 20260503194627 | 78 | 87 | 0.0 | 3.0 | 0.00 | 0.00 | 0.00 | 38 | 1015.3 |
| 20260503194121 | 77 | 292 | 0.0 | 1.0 | 0.00 | 0.00 | 0.00 | 36 | 1015.3 |
| 20260503193619 | 78 | 191 | 1.0 | 2.0 | 0.00 | 0.00 | 0.00 | 32 | 1015.3 |
| 20260503193114 | 79 | 197 | 1.0 | 3.0 | 0.00 | 0.00 | 0.00 | 35 | 1015.4 |
| 20260503192610 | 77 | 116 | 1.0 | 1.0 | 0.00 | 0.00 | 0.00 | 35 | 1015.4 |
| 20260503192106 | 76 | 164 | 1.0 | 2.0 | 0.00 | 0.00 | 0.00 | 34 | 1015.5 |
| 20260503191603 | 77 | 50 | 1.0 | 1.0 | 0.00 | 0.00 | 0.00 | 34 | 1015.5 |
| 20260503191100 | 76 | 163 | 0.0 | 2.0 | 0.00 | 0.00 | 0.00 | 38 | 1015.4 |
| 20260503190556 | 76 | 269 | 1.0 | 4.0 | 0.00 | 0.00 | 0.00 | 37 | 1015.5 |
| 20260503190054 | 76 | 223 | 1.0 | 2.0 | 0.00 | 0.00 | 0.00 | 37 | 1015.8 |
| 20260503185550 | 76 | 222 | 1.0 | 3.0 | 0.00 | 0.00 | 0.00 | 35 | 1015.7 |
| 20260503185050 | 75 | 128 | 1.0 | 1.0 | 0.00 | 0.00 | 0.00 | 39 | 1015.7 |
| 20260503184546 | 75 | 78 | 2.0 | 2.0 | 0.00 | 0.00 | 0.00 | 36 | 1015.9 |
| 20260503184043 | 76 | 104 | 1.0 | 1.0 | 0.00 | 0.00 | 0.00 | 37 | 1015.8 |
| 20260503183539 | 75 | 79 | 0.0 | 1.0 | 0.00 | 0.00 | 0.00 | 38 | 1015.9 |
| 20260503183037 | 76 | 144 | 1.0 | 1.0 | 0.00 | 0.00 | 0.00 | 36 | 1015.9 |
| 20260503182535 | 75 | 96 | 1.0 | 2.0 | 0.00 | 0.00 | 0.00 | 38 | 1016.0 |
| 20260503182033 | 74 | 76 | 1.0 | 3.0 | 0.00 | 0.00 | 0.00 | 38 | 1015.9 |
| 20260503181530 | 74 | 80 | 0.0 | 4.0 | 0.00 | 0.00 | 0.00 | 37 | 1016.0 |
| 20260503181026 | 75 | 110 | 1.0 | 3.0 | 0.00 | 0.00 | 0.00 | 39 | 1016.1 |
| 20260503180523 | 75 | 46 | 0.0 | 1.0 | 0.00 | 0.00 | 0.00 | 39 | 1016.0 |
| 20260503180020 | 74 | 109 | 1.0 | 1.0 | 0.00 | 0.00 | 0.00 | 39 | 1016.0 |
| 20260503175518 | 73 | 146 | 0.0 | 1.0 | 0.00 | 0.00 | 0.00 | 40 | 1016.3 |
| 20260503175015 | 73 | 325 | 1.0 | 2.0 | 0.00 | 0.00 | 0.00 | 36 | 1016.3 |
| 20260503174512 | 73 | 278 | 2.0 | 3.0 | 0.00 | 0.00 | 0.00 | 37 | 1016.1 |
| 20260503174008 | 74 | 223 | 1.0 | 1.0 | 0.00 | 0.00 | 0.00 | 37 | 1016.5 |
| 20260503173503 | 73 | 211 | 0.0 | 1.0 | 0.00 | 0.00 | 0.00 | 40 | 1016.4 |
| 20260503173000 | 72 | 291 | 1.0 | 2.0 | 0.00 | 0.00 | 0.00 | 39 | 1016.2 |
| 20260503172458 | 73 | 65 | 2.0 | 2.0 | 0.00 | 0.00 | 0.00 | 40 | 1016.6 |
| 20260503171954 | 73 | 73 | 0.0 | 1.0 | 0.00 | 0.00 | 0.00 | 40 | 1016.4 |
| 20260503171451 | 72 | 89 | 1.0 | 1.0 | 0.00 | 0.00 | 0.00 | 40 | 1016.3 |
| 20260503170948 | 72 | 222 | 0.0 | 1.0 | 0.00 | 0.00 | 0.00 | 40 | 1016.3 |
| 20260503170444 | 72 | 89 | 0.0 | 1.0 | 0.00 | 0.00 | 0.00 | 41 | 1016.4 |
| 20260503150837 | 67 | 155 | 1.0 | 1.0 | 0.00 | 0.00 | 0.00 | 47 | 1017.3 |
| 20260503150333 | 66 | 151 | 2.0 | 2.0 | 0.00 | 0.00 | 0.00 | 47 | 1017.3 |
| 20260503140257 | 53 | 192 | 0.0 | 0.0 | 0.00 | 0.00 | 0.00 | 68 | 1017.0 |
| 20260503131227 | 52 | 192 | 0.0 | 0.0 | 0.00 | 0.00 | 0.00 | 69 | 1016.5 |
| 20260503130724 | 52 | 192 | 0.0 | 0.0 | 0.00 | 0.00 | 0.00 | 68 | 1016.5 |
| 20260503130221 | 52 | 192 | 0.0 | 0.0 | 0.00 | 0.00 | 0.00 | 67 | 1016.6 |
| 20260503120147 | 56 | 193 | 0.0 | 1.0 | 0.00 | 0.00 | 0.00 | 55 | 1017.0 |
| 20260503110615 | 57 | 185 | 0.0 | 1.0 | 0.00 | 0.00 | 0.00 | 55 | 1016.6 |
| 20260503110112 | 57 | 184 | 0.0 | 0.0 | 0.00 | 0.00 | 0.00 | 55 | 1016.6 |
| 20260503090502 | 62 | 194 | 0.0 | 1.0 | 0.00 | 0.00 | 0.00 | 46 | 1016.4 |
| 20260503081428 | 62 | 203 | 0.0 | 1.0 | 0.00 | 0.00 | 0.00 | 47 | 1016.8 |
| 20260503080925 | 62 | 203 | 2.0 | 3.0 | 0.00 | 0.00 | 0.00 | 46 | 1016.8 |
| 20260503080422 | 62 | 188 | 1.0 | 2.0 | 0.00 | 0.00 | 0.00 | 46 | 1016.5 |
| 20260503072858 | 61 | 206 | 2.0 | 2.0 | 0.00 | 0.00 | 0.00 | 49 | 1016.6 |
| 20260503072355 | 61 | 194 | 0.0 | 2.0 | 0.00 | 0.00 | 0.00 | 50 | 1016.6 |
| 20260503071851 | 62 | 205 | 1.0 | 1.0 | 0.00 | 0.00 | 0.00 | 49 | 1016.6 |
| 20260503071349 | 62 | 203 | 0.0 | 2.0 | 0.00 | 0.00 | 0.00 | 48 | 1016.4 |
| 20260503070845 | 62 | 189 | 0.0 | 3.0 | 0.00 | 0.00 | 0.00 | 48 | 1016.5 |
| 20260503070343 | 63 | 189 | 2.0 | 2.0 | 0.00 | 0.00 | 0.00 | 46 | 1016.5 |
| 20260503060314 | 62 | 217 | 2.0 | 3.0 | 0.00 | 0.00 | 0.00 | 49 | 1016.5 |
| 20260503054801 | 61 | 222 | 0.0 | 2.0 | 0.00 | 0.00 | 0.00 | 52 | 1016.6 |
| 20260503054258 | 61 | 215 | 2.0 | 2.0 | 0.00 | 0.00 | 0.00 | 51 | 1016.6 |
| 20260503053755 | 62 | 197 | 1.0 | 2.0 | 0.00 | 0.00 | 0.00 | 51 | 1016.6 |
| 20260503053254 | 62 | 188 | 0.0 | 1.0 | 0.00 | 0.00 | 0.00 | 52 | 1016.6 |
| 20260503052750 | 61 | 202 | 3.0 | 3.0 | 0.00 | 0.00 | 0.00 | 52 | 1016.6 |
| 20260503052247 | 61 | 191 | 1.0 | 2.0 | 0.00 | 0.00 | 0.00 | 53 | 1016.6 |
| 20260503051742 | 60 | 211 | 0.0 | 3.0 | 0.00 | 0.00 | 0.00 | 54 | 1016.6 |
| 20260503051240 | 60 | 196 | 0.0 | 1.0 | 0.00 | 0.00 | 0.00 | 56 | 1016.5 |
| 20260503050736 | 60 | 195 | 0.0 | 2.0 | 0.00 | 0.00 | 0.00 | 58 | 1016.8 |
| 20260503050233 | 60 | 188 | 0.0 | 1.0 | 0.00 | 0.00 | 0.00 | 58 | 1016.6 |
| 20260503045730 | 61 | 177 | 0.0 | 0.0 | 0.00 | 0.00 | 0.00 | 57 | 1016.6 |
| 20260503045228 | 61 | 177 | 0.0 | 1.0 | 0.00 | 0.00 | 0.00 | 57 | 1016.5 |
| 20260503044724 | 61 | 196 | 0.0 | 1.0 | 0.00 | 0.00 | 0.00 | 56 | 1016.6 |
| 20260503044222 | 61 | 177 | 0.0 | 2.0 | 0.00 | 0.00 | 0.00 | 57 | 1016.4 |
| 20260503043718 | 60 | 199 | 2.0 | 2.0 | 0.00 | 0.00 | 0.00 | 60 | 1016.4 |
| 20260503043216 | 60 | 229 | 1.0 | 1.0 | 0.00 | 0.00 | 0.00 | 61 | 1016.6 |
| 20260503042711 | 60 | 248 | 0.0 | 2.0 | 0.00 | 0.00 | 0.00 | 60 | 1016.5 |
| 20260503042208 | 60 | 221 | 0.0 | 0.0 | 0.00 | 0.00 | 0.00 | 61 | 1016.4 |
| 20260503041704 | 60 | 221 | 0.0 | 0.0 | 0.00 | 0.00 | 0.00 | 60 | 1016.2 |
| 20260503041202 | 61 | 221 | 0.0 | 0.0 | 0.00 | 0.00 | 0.00 | 57 | 1016.3 |
| 20260503040659 | 62 | 221 | 1.0 | 1.0 | 0.00 | 0.00 | 0.00 | 60 | 1016.2 |
| 20260503040157 | 62 | 161 | 1.0 | 1.0 | 0.00 | 0.00 | 0.00 | 58 | 1016.1 |
| 20260503035653 | 62 | 156 | 1.0 | 1.0 | 0.00 | 0.00 | 0.00 | 57 | 1015.9 |
| 20260503035151 | 62 | 156 | 0.0 | 0.0 | 0.00 | 0.00 | 0.00 | 56 | 1016.1 |
| 20260503034648 | 63 | 134 | 1.0 | 1.0 | 0.00 | 0.00 | 0.00 | 54 | 1016.1 |
| 20260503034145 | 64 | 134 | 0.0 | 1.0 | 0.00 | 0.00 | 0.00 | 52 | 1015.9 |
| 20260503033642 | 64 | 76 | 0.0 | 0.0 | 0.00 | 0.00 | 0.00 | 50 | 1016.0 |
| 20260503033140 | 64 | 75 | 0.0 | 1.0 | 0.00 | 0.00 | 0.00 | 50 | 1015.8 |
| 20260503032638 | 64 | 75 | 0.0 | 1.0 | 0.00 | 0.00 | 0.00 | 50 | 1015.8 |
| 20260503032137 | 65 | 70 | 0.0 | 0.0 | 0.00 | 0.00 | 0.00 | 49 | 1015.7 |
| 20260503031633 | 65 | 70 | 0.0 | 1.0 | 0.00 | 0.00 | 0.00 | 48 | 1015.6 |
| 20260503031131 | 65 | 70 | 0.0 | 0.0 | 0.00 | 0.00 | 0.00 | 46 | 1015.7 |
| 20260503030627 | 66 | 70 | 0.0 | 0.0 | 0.00 | 0.00 | 0.00 | 45 | 1015.9 |
| 20260503030124 | 66 | 70 | 0.0 | 0.0 | 0.00 | 0.00 | 0.00 | 43 | 1015.7 |
| 20260503025620 | 67 | 70 | 0.0 | 0.0 | 0.00 | 0.00 | 0.00 | 42 | 1015.8 |
| 20260503025119 | 67 | 70 | 0.0 | 0.0 | 0.00 | 0.00 | 0.00 | 41 | 1015.7 |
| 20260503024615 | 68 | 70 | 0.0 | 0.0 | 0.00 | 0.00 | 0.00 | 39 | 1015.8 |
| 20260503024112 | 68 | 70 | 0.0 | 0.0 | 0.00 | 0.00 | 0.00 | 37 | 1015.6 |
| 20260503023609 | 68 | 69 | 0.0 | 0.0 | 0.00 | 0.00 | 0.00 | 36 | 1015.6 |
| 20260503023106 | 69 | 69 | 0.0 | 0.0 | 0.00 | 0.00 | 0.00 | 35 | 1015.7 |
| 20260503022601 | 69 | 69 | 0.0 | 0.0 | 0.00 | 0.00 | 0.00 | 35 | 1015.6 |
| 20260503022056 | 69 | 69 | 0.0 | 0.0 | 0.00 | 0.00 | 0.00 | 34 | 1015.9 |
| 20260503021554 | 70 | 69 | 0.0 | 0.0 | 0.00 | 0.00 | 0.00 | 34 | 1015.8 |
| 20260503021050 | 71 | 69 | 0.0 | 0.0 | 0.00 | 0.00 | 0.00 | 33 | 1015.9 |
| 20260503020547 | 71 | 69 | 0.0 | 0.0 | 0.00 | 0.00 | 0.00 | 32 | 1015.7 |
| 20260503020044 | 71 | 69 | 0.0 | 0.0 | 0.00 | 0.00 | 0.00 | 33 | 1015.8 |
| 20260503015541 | 71 | 69 | 0.0 | 0.0 | 0.00 | 0.00 | 0.00 | 31 | 1015.9 |
| 20260503015039 | 71 | 69 | 0.0 | 0.0 | 0.00 | 0.00 | 0.00 | 32 | 1015.9 |
| 20260503014534 | 71 | 69 | 0.0 | 0.0 | 0.00 | 0.00 | 0.00 | 31 | 1016.0 |
| 20260503014032 | 72 | 69 | 0.0 | 0.0 | 0.00 | 0.00 | 0.00 | 34 | 1016.0 |
| 20260503013529 | 73 | 69 | 0.0 | 1.0 | 0.00 | 0.00 | 0.00 | 34 | 1016.1 |
| 20260503013027 | 74 | 69 | 0.0 | 1.0 | 0.00 | 0.00 | 0.00 | 32 | 1015.9 |
| 20260503012524 | 75 | 69 | 0.0 | 0.0 | 0.00 | 0.00 | 0.00 | 33 | 1016.0 |
| 20260503012020 | 75 | 68 | 0.0 | 0.0 | 0.00 | 0.00 | 0.00 | 31 | 1016.0 |
| 20260503011517 | 75 | 68 | 0.0 | 0.0 | 0.00 | 0.00 | 0.00 | 36 | 1016.2 |
| 20260503011015 | 75 | 68 | 0.0 | 1.0 | 0.00 | 0.00 | 0.00 | 33 | 1016.3 |
| 20260503010510 | 75 | 69 | 0.0 | 0.0 | 0.00 | 0.00 | 0.00 | 34 | 1016.1 |
| 20260503010009 | 76 | 68 | 0.0 | 0.0 | 0.00 | 0.00 | 0.00 | 33 | 1016.2 |
| 20260503005505 | 76 | 68 | 0.0 | 0.0 | 0.00 | 0.00 | 0.00 | 34 | 1016.1 |
| 20260503005002 | 75 | 83 | 0.0 | 0.0 | 0.00 | 0.00 | 0.00 | 32 | 1016.0 |
| 20260503004458 | 75 | 84 | 0.0 | 1.0 | 0.00 | 0.00 | 0.00 | 33 | 1016.0 |
| 20260503003956 | 77 | 188 | 1.0 | 1.0 | 0.00 | 0.00 | 0.00 | 32 | 1016.0 |
| 20260503003453 | 78 | 189 | 0.0 | 2.0 | 0.00 | 0.00 | 0.00 | 37 | 1016.0 |
| 20260503002950 | 79 | 56 | 0.0 | 0.0 | 0.00 | 0.00 | 0.00 | 33 | 1016.0 |
| 20260503002447 | 79 | 49 | 0.0 | 1.0 | 0.00 | 0.00 | 0.00 | 34 | 1016.1 |
| 20260503001943 | 78 | 45 | 0.0 | 1.0 | 0.00 | 0.00 | 0.00 | 34 | 1016.1 |
| 20260503001440 | 78 | 44 | 0.0 | 0.0 | 0.00 | 0.00 | 0.00 | 32 | 1016.2 |
| 20260503000938 | 79 | 266 | 2.0 | 3.0 | 0.00 | 0.00 | 0.00 | 33 | 1016.1 |
| 20260503000434 | 80 | 238 | 2.0 | 3.0 | 0.00 | 0.00 | 0.00 | 30 | 1016.2 |
| 20260502235932 | 79 | 68 | 1.0 | 1.0 | 0.00 | 0.00 | 0.00 | 35 | 1016.3 |
| 20260502235428 | 79 | 76 | 0.0 | 1.0 | 0.00 | 0.00 | 0.00 | 31 | 1016.0 |
| 20260502234926 | 79 | 81 | 1.0 | 2.0 | 0.00 | 0.00 | 0.00 | 31 | 1016.3 |
| 20260502234422 | 78 | 93 | 1.0 | 2.0 | 0.00 | 0.00 | 0.00 | 31 | 1016.2 |
| 20260502233920 | 78 | 164 | 0.0 | 1.0 | 0.00 | 0.00 | 0.00 | 35 | 1016.4 |
| 20260502233415 | 77 | 154 | 0.0 | 1.0 | 0.00 | 0.00 | 0.00 | 33 | 1016.3 |
| 20260502232913 | 77 | 97 | 2.0 | 2.0 | 0.00 | 0.00 | 0.00 | 32 | 1016.5 |
| 20260502232408 | 76 | 103 | 0.0 | 1.0 | 0.00 | 0.00 | 0.00 | 33 | 1016.5 |
| 20260502231905 | 75 | 165 | 1.0 | 1.0 | 0.00 | 0.00 | 0.00 | 34 | 1016.6 |
| 20260502231403 | 75 | 172 | 2.0 | 2.0 | 0.00 | 0.00 | 0.00 | 35 | 1016.6 |
| 20260502230901 | 76 | 213 | 3.0 | 3.0 | 0.00 | 0.00 | 0.00 | 33 | 1016.8 |
| 20260502230359 | 75 | 191 | 1.0 | 1.0 | 0.00 | 0.00 | 0.00 | 34 | 1017.0 |
| 20260502225856 | 74 | 126 | 1.0 | 1.0 | 0.00 | 0.00 | 0.00 | 37 | 1017.0 |
| 20260502225352 | 74 | 225 | 1.0 | 2.0 | 0.00 | 0.00 | 0.00 | 35 | 1017.0 |
| 20260502224849 | 74 | 194 | 1.0 | 1.0 | 0.00 | 0.00 | 0.00 | 34 | 1017.3 |
| 20260502224345 | 75 | 257 | 3.0 | 4.0 | 0.00 | 0.00 | 0.00 | 34 | 1017.2 |
| 20260502223843 | 75 | 96 | 1.0 | 4.0 | 0.00 | 0.00 | 0.00 | 36 | 1017.3 |
| 20260502223341 | 75 | 135 | 1.0 | 1.0 | 0.00 | 0.00 | 0.00 | 37 | 1017.6 |
| 20260502222838 | 75 | 195 | 2.0 | 2.0 | 0.00 | 0.00 | 0.00 | 32 | 1017.5 |
| 20260502222336 | 75 | 294 | 0.0 | 1.0 | 0.00 | 0.00 | 0.00 | 36 | 1017.8 |
| 20260502221831 | 75 | 124 | 1.0 | 1.0 | 0.00 | 0.00 | 0.00 | 34 | 1018.0 |